Historyczne dane pomiarowe

Dodano dane terminowe – wersja testowa.

Dane z okresu 1951-2019

Wersja bazy: 1.34 [2019-03-16, lista zmian], aktualizacja planowana na 2019-04-15

Dane meteo z obszaru Polski uzyskane na podstawie danych udostępnionych przez Instytut Meteorologii i Gospodarki Wodnej – Państwowy Instytut Badawczy.

 

Wybierz Datę:    

       

TemperaturaWilgotnośćWiatrCiśnienieOpadyŚniegCzas trwania zjawisk
 Stacja t tx tn tng RH VA  wxwx mslp ppp RRR   cm mm wxwxwxwxwxwxwx
2019-07-31 21.2 24.7 18.5 18.3 77.8 19.3- 2.1--1012.6 978.5 0.2 0.0 0.0x- 1.5-------
2019-07-30 23.0 30.1 18.9 17.0 74.5 20.4- 1.5--1007.4 973.6 0.6 0.6 0.0x- 8.0-------
2019-07-29 24.6 33.4 18.9 17.7 63.6 18.3- 1.5--1004.0 970.5 4.4 0.0 4.4x- 9.2-------
2019-07-28 24.8 31.6 17.1 15.1 56.3 16.3- 2.0--1003.9 970.4 0.0 0.0 0.0x- 11.4-------
2019-07-27 20.8 28.1 15.2 14.7 63.8 15.3- 2.3--1006.7 972.7 0.0 0.0 0.0x- 8.0-------
2019-07-26 22.9 28.4 17.5 16.2 52.8 14.0- 2.6--1011.9 978.0 0.0 0.0 0.0x- 12.3-------
2019-07-25 23.5 29.5 16.2 13.8 57.5 15.7- 1.3--1017.9 983.8 0.0 0.0 0.0x- 10.3-------
2019-07-24 20.7 25.3 16.4 15.9 73.5 17.5- 2.3--1019.0 984.6 0.0 0.0 0.0x- 2.8-------
2019-07-23 17.7 23.2 15.2 15.4 84.0 16.9- 2.0--1020.8 986.0 0.1 0.1 0.0x- 0.0-------
2019-07-22 21.2 26.4 15.0 12.4 59.6 14.1- 2.1--1021.5 987.1 2.1 0.0 2.1x- 7.4-------
2019-07-21 20.7 28.4 17.9 16.7 72.8 17.4- 1.9--1017.6 983.2 0.9 0.9 0.0x- 6.4-------
2019-07-20 22.3 28.4 15.7 15.1 60.0 15.1- 1.5--1016.0 981.9 0.9 0.0 0.9x- 7.7-------
2019-07-19 19.8 26.4 12.9 10.5 56.6 12.7- 1.6--1014.7 980.3 0.2 0.1 0.1x- 5.7-------
2019-07-18 18.2 24.7 9.7 7.0 53.1 10.3- 1.1--1013.4 978.8 0.0 0.0 0.0x- 10.8-------
2019-07-17 16.6 20.5 11.4 10.7 62.4 11.4- 2.4--1012.7 978.0 0.0 0.0 0.0x- 5.2-------
2019-07-16 15.3 21.5 11.4 10.7 67.9 11.6- 2.1--1013.5 978.6 0.0 0.0 0.0x- 4.1-------
2019-07-15 17.8 23.8 11.4 9.3 44.4 8.5- 2.4--1013.9 979.3 0.0 0.0 0.0x- 13.3-------
2019-07-14 16.7 21.8 13.0 11.6 71.5 13.3- 3.0--1012.6 977.9 0.7 0.7 0.0x- 5.9-------
2019-07-13 16.9 21.4 14.4 14.2 74.4 14.0- 1.8--1010.2 975.7 2.1 0.0 2.1x- 3.0-------
2019-07-12 18.0 26.2 11.4 9.2 55.3 10.9- 1.6--1010.9 976.4 3.4 0.0 3.4x- 7.9-------
2019-07-11 15.1 20.0 10.4 8.5 63.6 10.4- 2.5--1012.8 977.9 0.0 0.0 0.0x- 7.1-------
2019-07-10 14.5 18.4 11.2 11.1 64.5 10.6- 2.5--1014.3 979.3 0.5 0.3 0.2x- 6.9-------
2019-07-09 14.2 20.7 9.0 6.9 59.5 9.4- 2.1--1014.5 979.5 0.0 0.0 0.0x- 5.3-------
2019-07-08 13.7 18.0 8.5 7.8 53.5 8.1- 2.5--1013.8 978.7 0.0 0.0 0.0x- 5.3-------
2019-07-07 15.6 24.7 11.7 11.9 67.3 11.8- 2.5--1008.5 973.8 0.6 0.6 0.0x- 4.1-------
2019-07-06 20.9 27.0 15.0 13.8 51.3 12.0- 1.3--1009.2 975.1 0.1 0.0 0.1x- 4.6-------
2019-07-05 16.5 22.0 10.6 9.7 54.5 10.1- 2.0--1014.4 979.6 0.0 0.0 0.0x- 0.7-------
2019-07-04 16.8 22.3 9.1 7.6 45.6 8.2- 1.9--1020.7 985.7 0.0 0.0 0.0x- 13.1-------
2019-07-03 16.6 21.2 10.4 8.7 45.9 8.3- 3.3--1020.3 985.3 0.0 0.0 0.0x- 13.0-------
2019-07-02 20.3 25.0 17.6 17.4 61.5 14.0- 2.5--1016.0 981.6 0.0 0.0 0.0x- 10.7-------
2019-07-01 26.6 34.8 21.9 20.5 48.4 15.9- 2.3--1012.3 978.8 5.3 0.0 5.3x- 10.9-------
2019-06-30 25.8 34.2 15.5 13.5 42.9 12.9- 2.1--1015.9 982.1 0.0 0.0 0.0x- 14.4-------
2019-06-29 21.1 27.4 13.4 9.9 45.6 11.0- 1.9--1020.7 986.2 0.0 0.0 0.0x- 14.0-------
2019-06-28 17.5 22.6 12.7 11.9 65.6 12.7- 2.6--1021.5 986.6 0.0 0.0 0.0x- 8.0-------
2019-06-27 23.5 30.5 22.5 22.1 47.9 13.7- 5.0--1018.0 984.0 0.0 0.0 0.0x- 13.9-------
2019-06-26 27.8 34.3 20.6 19.4 55.8 19.7- 2.0--1020.7 987.0 0.0 0.0 0.0x- 13.8-------
2019-06-25 25.1 31.4 17.5 16.8 58.1 17.9- 2.1--1024.2 990.1 0.0 0.0 0.0x- 12.8-------
2019-06-24 21.6 27.5 14.4 14.1 51.4 13.0- 2.4--1023.6 989.2 0.0 0.0 0.0x- 13.0-------
2019-06-23 20.2 25.0 15.6 15.1 50.8 11.6- 3.5--1020.7 986.2 0.0 0.0 0.0x- 12.9-------
2019-06-22 20.4 24.7 16.3 15.5 64.6 15.0- 3.1--1020.4 985.9 0.0 0.0 0.0x- 11.0-------
2019-06-21 20.0 26.6 15.9 14.7 77.0 17.7- 1.8--1015.3 980.9 10.4 10.4 0.0x- 8.0-------
2019-06-20 22.9 28.6 19.0 17.7 66.6 18.2- 1.9--1010.8 976.9 0.0 0.0 0.0x- 6.2-------
2019-06-19 23.6 29.4 16.9 15.8 62.8 17.6- 1.5--1012.6 978.8 0.0 0.0 0.0x- 10.2-------
2019-06-18 20.6 25.7 15.0 14.2 63.5 15.1- 2.4--1019.1 984.6 0.0 0.0 0.0x- 9.5-------
2019-06-17 19.9 24.3 14.5 14.0 54.3 12.0- 2.9--1021.1 986.5 0.0 0.0 0.0x- 13.2-------
2019-06-16 21.9 28.3 17.8 17.4 67.5 17.6- 2.5--1016.1 981.9 5.0 5.0 0.0x- 6.6-------
2019-06-15 26.8 33.7 19.9 19.6 56.5 18.5- 2.4--1013.3 979.8 0.1 0.0 0.1x- 11.4-------
2019-06-14 23.0 27.8 18.7 18.2 74.0 20.4- 2.1--1018.4 984.3 0.0 0.0 0.0x- 8.3-------
2019-06-13 26.0 32.6 21.0 18.0 56.3 17.8- 2.1--1012.8 979.2 0.3 0.2 0.1x- 10.2-------
2019-06-12 26.5 32.1 19.4 17.7 48.0 15.8- 2.0--1011.7 978.2 0.0 0.0 0.0x- 14.1-------
2019-06-11 26.2 32.4 19.1 17.2 53.6 17.2- 2.0--1012.5 979.0 0.0 0.0 0.0x- 12.9-------
2019-06-10 24.7 30.3 17.8 17.1 57.9 17.4- 2.1--1016.4 982.5 0.0 0.0 0.0x- 11.9-------
2019-06-09 20.0 25.9 11.4 8.2 53.4 11.5- 1.9--1025.1 990.4 0.0 0.0 0.0x- 14.4-------
2019-06-08 20.5 26.8 16.4 14.4 66.4 15.8- 1.8--1019.0 984.6 0.0 0.0 0.0x- 9.7-------
2019-06-07 20.3 24.5 15.8 14.9 73.9 17.3- 1.4--1014.4 980.1 0.0 0.0 0.0x- 8.0-------
2019-06-06 21.4 26.7 15.2 13.0 60.5 14.8- 2.0--1011.2 977.2 0.0 0.0 0.0x- 11.3-------
2019-06-05 21.8 27.0 16.5 16.0 62.9 16.0- 2.8--1011.4 977.4 0.1 0.1 0.0x- 12.1-------
2019-06-04 23.0 28.5 16.1 13.4 50.8 13.8- 2.1--1013.8 979.9 0.0 0.0 0.0x- 13.2-------
2019-06-03 21.5 27.0 13.7 9.8 56.1 13.5- 1.6--1017.6 983.4 0.0 0.0 0.0x- 14.8-------
2019-06-02 20.1 26.9 13.2 10.6 64.8 14.5- 1.4--1019.4 984.9 0.0 0.0 0.0x- 12.7-------
45.9 ms

 

Źródłem pochodzenia danych jest Instytut Meteorologii i Gospodarki Wodnej – Państwowy Instytut Badawczy. Dane Instytutu Meteorologii i Gospodarki Wodnej – Państwowego Instytutu Badawczego zostały przetworzone.

Dane źródłowe można odnaleźć na stronie https://dane.imgw.pl